Time;durP1;ratioP1;P1;durP2;ratioP2;P2;SDS_P1;SDS_P2;PMS_P1;PMS_P2;Temp;Humidity;BMP_temperature;BMP_pressure;BME280_temperature;BME280_humidity;BME280_pressure;Samples;Min_cycle;Max_cycle;Signal;HPM_P1;HPM_P2
2023/06/13 00:00:45;;;;;;;5.05;4.60;;;;;;;;;;5003499;28;20026;-77
2023/06/13 00:03:13;;;;;;;6.05;3.75;;;;;;;;;;4991543;28;20033;-77
2023/06/13 00:05:45;;;;;;;4.40;4.00;;;;;;;;;;4991901;28;20081;-77
2023/06/13 00:08:17;;;;;;;4.82;3.78;;;;;;;;;;5001331;28;20032;-78
2023/06/13 00:10:43;;;;;;;4.47;3.85;;;;;;;;;;5003230;28;20025;-76
2023/06/13 00:13:08;;;;;;;4.70;3.83;;;;;;;;;;5004214;28;20028;-78
2023/06/13 00:15:35;;;;;;;4.20;3.90;;;;;;;;;;5004066;28;20144;-79
2023/06/13 00:18:01;;;;;;;5.30;3.47;;;;;;;;;;4993596;28;20033;-77
2023/06/13 00:20:26;;;;;;;3.95;3.50;;;;;;;;;;4983937;28;20038;-78
2023/06/13 00:22:52;;;;;;;3.80;3.50;;;;;;;;;;5003545;28;20100;-77
2023/06/13 00:25:17;;;;;;;4.80;2.95;;;;;;;;;;4989439;28;20049;-76
2023/06/13 00:27:42;;;;;;;3.70;3.40;;;;;;;;;;5004202;28;20069;-79
2023/06/13 00:30:08;;;;;;;3.88;3.30;;;;;;;;;;5003888;28;20412;-77
2023/06/13 00:32:33;;;;;;;3.53;3.17;;;;;;;;;;5003805;28;20112;-77
2023/06/13 00:34:59;;;;;;;4.13;3.25;;;;;;;;;;4985976;28;20030;-77
2023/06/13 00:37:29;;;;;;;3.53;2.83;;;;;;;;;;5003216;28;20437;-78
2023/06/13 00:39:54;;;;;;;3.75;3.45;;;;;;;;;;5001153;28;20025;-77
2023/06/13 00:42:20;;;;;;;6.70;3.40;;;;;;;;;;4985487;28;20084;-78
2023/06/13 00:44:46;;;;;;;5.40;3.10;;;;;;;;;;5027389;28;20078;-77
2023/06/13 00:47:13;;;;;;;4.55;3.00;;;;;;;;;;5001482;28;20037;-77
2023/06/13 00:49:40;;;;;;;4.72;3.53;;;;;;;;;;4983505;28;20034;-77
2023/06/13 00:52:05;;;;;;;6.47;3.30;;;;;;;;;;4994117;28;20018;-77
2023/06/13 00:54:36;;;;;;;3.30;2.78;;;;;;;;;;4991514;28;20556;-78
2023/06/13 00:57:02;;;;;;;3.03;2.83;;;;;;;;;;4983638;28;20053;-77
2023/06/13 00:59:27;;;;;;;3.17;2.90;;;;;;;;;;5003129;28;20019;-78
2023/06/13 01:01:53;;;;;;;3.40;3.10;;;;;;;;;;5003384;28;20037;-82
2023/06/13 01:04:19;;;;;;;3.65;2.60;;;;;;;;;;5018148;28;20385;-78
2023/06/13 01:06:45;;;;;;;3.03;2.78;;;;;;;;;;4994579;28;20026;-79
2023/06/13 01:09:11;;;;;;;3.05;2.85;;;;;;;;;;4995459;28;20503;-77
2023/06/13 01:11:36;;;;;;;3.60;3.30;;;;;;;;;;5003023;28;20030;-77
2023/06/13 01:14:15;;;;;;;3.33;3.03;;;;;;;;;;4993518;28;20065;-77
2023/06/13 01:16:47;;;;;;;3.80;3.50;;;;;;;;;;5000409;28;20448;-76
2023/06/13 01:19:33;;;;;;;4.70;3.22;;;;;;;;;;5003501;28;20069;-78
2023/06/13 01:21:58;;;;;;;3.45;3.20;;;;;;;;;;4999017;28;20049;-76
2023/06/13 01:24:44;;;;;;;3.53;3.20;;;;;;;;;;4990288;28;20034;-78
2023/06/13 01:27:12;;;;;;;4.20;3.42;;;;;;;;;;4995917;28;20042;-74
2023/06/13 01:29:38;;;;;;;3.95;3.50;;;;;;;;;;4989644;28;20465;-75
2023/06/13 01:32:04;;;;;;;3.67;3.38;;;;;;;;;;4998020;28;20030;-76
2023/06/13 01:34:30;;;;;;;7.45;3.58;;;;;;;;;;5002250;28;20033;-76
2023/06/13 01:36:55;;;;;;;4.32;3.92;;;;;;;;;;5002992;28;20507;-77
2023/06/13 01:39:21;;;;;;;3.40;3.10;;;;;;;;;;5002959;28;20121;-76
2023/06/13 01:41:46;;;;;;;5.85;3.05;;;;;;;;;;5001576;28;20057;-77
2023/06/13 01:44:15;;;;;;;3.92;3.20;;;;;;;;;;4986598;28;20026;-77
2023/06/13 01:47:06;;;;;;;3.30;3.08;;;;;;;;;;5002595;28;20026;-76
2023/06/13 01:50:07;;;;;;;3.40;3.10;;;;;;;;;;4986089;28;20061;-76
2023/06/13 01:52:39;;;;;;;4.07;3.78;;;;;;;;;;4999315;28;20033;-76
2023/06/13 01:55:08;;;;;;;3.10;2.90;;;;;;;;;;4972111;28;20483;-75
2023/06/13 01:57:33;;;;;;;;;;;;;;;;;;5000050;28;20069;-75
2023/06/13 01:59:59;;;;;;;3.10;2.73;;;;;;;;;;5004523;28;19909;-76
2023/06/13 02:02:25;;;;;;;4.95;3.38;;;;;;;;;;4988156;28;20061;-76
2023/06/13 02:04:51;;;;;;;3.97;3.13;;;;;;;;;;4986475;28;20096;-77
2023/06/13 02:07:16;;;;;;;3.53;3.33;;;;;;;;;;4985679;28;20049;-75
2023/06/13 02:09:41;;;;;;;3.50;3.20;;;;;;;;;;4984996;28;20456;-75
2023/06/13 02:12:07;;;;;;;4.05;3.35;;;;;;;;;;4995049;28;20045;-75
2023/06/13 02:14:32;;;;;;;4.05;3.65;;;;;;;;;;4999106;28;20068;-76
2023/06/13 02:16:59;;;;;;;3.67;3.38;;;;;;;;;;4998500;28;20034;-75
2023/06/13 02:19:25;;;;;;;6.60;3.90;;;;;;;;;;4974448;28;20030;-78
2023/06/13 02:21:50;;;;;;;3.70;3.40;;;;;;;;;;4996675;28;20112;-77
2023/06/13 02:24:16;;;;;;;3.72;3.42;;;;;;;;;;4991825;28;20346;-76
2023/06/13 02:26:41;;;;;;;3.85;3.55;;;;;;;;;;4996859;28;20061;-77
2023/06/13 02:29:07;;;;;;;4.05;3.63;;;;;;;;;;5001187;28;20133;-76
2023/06/13 02:31:35;;;;;;;3.78;3.47;;;;;;;;;;4992993;28;20055;-77
2023/06/13 02:34:01;;;;;;;4.20;3.75;;;;;;;;;;4983591;28;20026;-77
2023/06/13 02:36:26;;;;;;;3.85;3.25;;;;;;;;;;4991940;28;20404;-78
2023/06/13 02:38:51;;;;;;;3.25;3.05;;;;;;;;;;5001700;28;20029;-76
2023/06/13 02:41:17;;;;;;;3.70;3.40;;;;;;;;;;5001691;28;20100;-76
2023/06/13 02:43:42;;;;;;;3.65;3.40;;;;;;;;;;5001999;28;20040;-78
2023/06/13 02:46:08;;;;;;;3.95;3.65;;;;;;;;;;5011688;28;20065;-76
2023/06/13 02:48:33;;;;;;;3.72;3.22;;;;;;;;;;4991349;28;20026;-76
2023/06/13 02:50:59;;;;;;;3.47;3.17;;;;;;;;;;5001319;28;20432;-76
2023/06/13 02:53:25;;;;;;;4.22;3.33;;;;;;;;;;5001370;28;20080;-74
2023/06/13 02:55:52;;;;;;;3.97;2.80;;;;;;;;;;5001978;28;20313;-75
2023/06/13 02:58:18;;;;;;;3.47;3.17;;;;;;;;;;5001243;28;20057;-75
2023/06/13 03:00:44;;;;;;;2.70;2.47;;;;;;;;;;5002092;28;20029;-76
2023/06/13 03:03:10;;;;;;;4.93;3.17;;;;;;;;;;4986191;28;20029;-75
2023/06/13 03:05:36;;;;;;;3.35;3.13;;;;;;;;;;4987801;28;20052;-76
2023/06/13 03:08:02;;;;;;;4.18;3.55;;;;;;;;;;5001778;28;20034;-76
2023/06/13 03:10:27;;;;;;;6.13;3.97;;;;;;;;;;5002950;28;20464;-76
2023/06/13 03:12:52;;;;;;;4.60;4.20;;;;;;;;;;5004958;28;20022;-76
2023/06/13 03:15:18;;;;;;;4.00;3.65;;;;;;;;;;5005250;28;20503;-76
2023/06/13 03:17:44;;;;;;;4.13;3.58;;;;;;;;;;5004814;28;20029;-76
2023/06/13 03:20:10;;;;;;;3.75;3.45;;;;;;;;;;4986839;28;20018;-76
2023/06/13 03:22:35;;;;;;;3.83;3.50;;;;;;;;;;5005086;28;20052;-76
2023/06/13 03:25:04;;;;;;;4.03;3.60;;;;;;;;;;4998546;28;20030;-76
2023/06/13 03:27:31;;;;;;;4.10;3.70;;;;;;;;;;4995559;28;20141;-77
2023/06/13 03:29:57;;;;;;;4.75;4.30;;;;;;;;;;4991491;28;20101;-75
2023/06/13 03:32:22;;;;;;;4.00;3.70;;;;;;;;;;4989619;28;20116;-76
2023/06/13 03:34:48;;;;;;;7.70;4.55;;;;;;;;;;4985286;28;20052;-75
2023/06/13 03:37:14;;;;;;;4.20;3.80;;;;;;;;;;4993566;28;20026;-78
2023/06/13 03:39:39;;;;;;;4.65;3.88;;;;;;;;;;5004937;28;20021;-78
2023/06/13 03:42:05;;;;;;;4.40;4.00;;;;;;;;;;4994299;28;20065;-75
2023/06/13 03:44:30;;;;;;;6.15;4.00;;;;;;;;;;4988960;28;20080;-78
2023/06/13 03:46:56;;;;;;;5.25;4.00;;;;;;;;;;4989664;28;21033;-76
2023/06/13 03:49:24;;;;;;;4.15;3.83;;;;;;;;;;4990614;28;20033;-76
2023/06/13 03:51:50;;;;;;;5.32;3.45;;;;;;;;;;4991261;28;20030;-77
2023/06/13 03:54:15;;;;;;;4.68;4.03;;;;;;;;;;4987927;28;20029;-77
2023/06/13 03:56:41;;;;;;;4.40;4.07;;;;;;;;;;4989835;28;20056;-76
2023/06/13 03:59:06;;;;;;;5.70;4.05;;;;;;;;;;4989960;28;20042;-77
2023/06/13 04:01:31;;;;;;;4.15;3.85;;;;;;;;;;4990264;28;20139;-76
2023/06/13 04:03:57;;;;;;;3.83;3.53;;;;;;;;;;4989615;28;20184;-75
2023/06/13 04:06:22;;;;;;;5.10;4.18;;;;;;;;;;4990849;28;20029;-75
2023/06/13 04:08:48;;;;;;;4.57;3.88;;;;;;;;;;5003508;28;20022;-76
2023/06/13 04:11:13;;;;;;;4.13;3.83;;;;;;;;;;5019371;28;20025;-76
2023/06/13 04:13:38;;;;;;;5.65;4.00;;;;;;;;;;5002060;28;20018;-76
2023/06/13 04:16:04;;;;;;;5.07;3.63;;;;;;;;;;4986230;28;20026;-75
2023/06/13 04:18:30;;;;;;;3.97;3.67;;;;;;;;;;4989822;28;20101;-76
2023/06/13 04:20:55;;;;;;;4.00;3.70;;;;;;;;;;4988955;28;20044;-76
2023/06/13 04:23:21;;;;;;;5.45;3.88;;;;;;;;;;4989744;28;20429;-75
2023/06/13 04:25:47;;;;;;;4.43;4.13;;;;;;;;;;4990643;28;20041;-75
2023/06/13 04:28:13;;;;;;;4.47;4.10;;;;;;;;;;4986872;28;20026;-75
2023/06/13 04:30:40;;;;;;;6.90;4.10;;;;;;;;;;5001586;28;20561;-76
2023/06/13 04:33:13;;;;;;;5.82;4.57;;;;;;;;;;5002831;28;20136;-76
2023/06/13 04:35:44;;;;;;;3.90;3.60;;;;;;;;;;5003588;28;20069;-75
2023/06/13 04:38:10;;;;;;;6.22;3.45;;;;;;;;;;4986781;28;20034;-74
2023/06/13 04:40:37;;;;;;;3.70;3.40;;;;;;;;;;4985889;28;20430;-74
2023/06/13 04:43:04;;;;;;;3.72;3.42;;;;;;;;;;4986288;28;20033;-77
2023/06/13 04:45:30;;;;;;;4.35;3.60;;;;;;;;;;4984912;28;20030;-74
2023/06/13 04:47:57;;;;;;;3.90;3.53;;;;;;;;;;4985948;28;20037;-75
2023/06/13 04:50:24;;;;;;;3.80;3.50;;;;;;;;;;4982987;28;20802;-73
2023/06/13 04:52:53;;;;;;;4.30;3.63;;;;;;;;;;4985445;28;20092;-75
2023/06/13 04:55:21;;;;;;;4.55;3.97;;;;;;;;;;4999715;28;20290;-74
2023/06/13 04:57:46;;;;;;;4.45;4.05;;;;;;;;;;5001806;28;20058;-75
2023/06/13 05:00:12;;;;;;;3.70;3.50;;;;;;;;;;5003096;28;20453;-75
2023/06/13 05:02:38;;;;;;;4.20;3.90;;;;;;;;;;5002768;28;20096;-75
2023/06/13 05:05:04;;;;;;;4.28;3.97;;;;;;;;;;5002164;28;20068;-77
2023/06/13 05:07:30;;;;;;;4.70;4.30;;;;;;;;;;5002660;28;20429;-74
2023/06/13 05:09:55;;;;;;;4.75;4.45;;;;;;;;;;5002058;28;20021;-75
2023/06/13 05:12:22;;;;;;;5.05;4.65;;;;;;;;;;4986274;28;20088;-74
2023/06/13 05:14:47;;;;;;;4.50;4.10;;;;;;;;;;4991387;28;20030;-75
2023/06/13 05:17:14;;;;;;;4.72;4.32;;;;;;;;;;5003141;28;20021;-75
2023/06/13 05:19:40;;;;;;;4.30;4.00;;;;;;;;;;5001967;28;20018;-74
2023/06/13 05:22:06;;;;;;;4.22;3.92;;;;;;;;;;5002830;28;20030;-76
2023/06/13 05:24:31;;;;;;;4.47;4.07;;;;;;;;;;5001914;28;20034;-75
2023/06/13 05:26:57;;;;;;;4.82;4.43;;;;;;;;;;5001523;28;20038;-76
2023/06/13 05:29:23;;;;;;;4.30;4.00;;;;;;;;;;4984978;28;20438;-75
2023/06/13 05:31:48;;;;;;;4.72;3.22;;;;;;;;;;5001362;28;20454;-76
2023/06/13 05:34:14;;;;;;;3.72;3.42;;;;;;;;;;5002267;28;20026;-74
2023/06/13 05:36:39;;;;;;;3.95;3.65;;;;;;;;;;5002593;28;20040;-75
2023/06/13 05:39:04;;;;;;;4.20;3.90;;;;;;;;;;5002846;28;20164;-75
2023/06/13 05:41:30;;;;;;;4.32;4.03;;;;;;;;;;5002163;28;20445;-77
2023/06/13 05:43:55;;;;;;;4.72;3.88;;;;;;;;;;5002134;28;20105;-77
2023/06/13 05:46:20;;;;;;;4.45;4.00;;;;;;;;;;5002408;28;20060;-77
2023/06/13 05:48:46;;;;;;;3.83;3.53;;;;;;;;;;5001317;28;20433;-75
2023/06/13 05:51:11;;;;;;;4.07;3.78;;;;;;;;;;5001637;28;20026;-77
2023/06/13 05:53:36;;;;;;;4.82;4.32;;;;;;;;;;5001746;28;20372;-76
2023/06/13 05:56:02;;;;;;;4.50;4.18;;;;;;;;;;4990164;28;20103;-76
2023/06/13 05:58:27;;;;;;;4.68;4.30;;;;;;;;;;5001247;28;20088;-77
2023/06/13 06:00:53;;;;;;;4.57;4.20;;;;;;;;;;5001781;28;20029;-76
2023/06/13 06:03:19;;;;;;;4.75;4.35;;;;;;;;;;5001816;28;20038;-76
2023/06/13 06:05:44;;;;;;;5.57;5.05;;;;;;;;;;5001964;28;20087;-75
2023/06/13 06:08:11;;;;;;;4.60;4.20;;;;;;;;;;5000219;28;20030;-76
2023/06/13 06:10:37;;;;;;;4.78;4.38;;;;;;;;;;5001249;28;20037;-75
2023/06/13 06:13:03;;;;;;;4.75;4.35;;;;;;;;;;5001288;28;20434;-74
2023/06/13 06:15:28;;;;;;;5.32;4.93;;;;;;;;;;5001874;28;20065;-75
2023/06/13 06:17:53;;;;;;;4.90;4.50;;;;;;;;;;5000890;28;20389;-75
2023/06/13 06:20:19;;;;;;;5.00;4.60;;;;;;;;;;5002082;28;20061;-76
2023/06/13 06:22:44;;;;;;;4.45;4.15;;;;;;;;;;5001992;28;20421;-76
2023/06/13 06:25:12;;;;;;;4.97;4.22;;;;;;;;;;5001901;28;20033;-75
2023/06/13 06:27:37;;;;;;;4.80;4.50;;;;;;;;;;5002507;28;20124;-75
2023/06/13 06:30:04;;;;;;;4.63;4.22;;;;;;;;;;5002473;28;20128;-75
2023/06/13 06:32:30;;;;;;;5.65;4.78;;;;;;;;;;5002460;28;20448;-75
2023/06/13 06:34:55;;;;;;;4.80;4.10;;;;;;;;;;5002189;28;20038;-75
2023/06/13 06:37:21;;;;;;;4.10;3.72;;;;;;;;;;5002424;28;20818;-75
2023/06/13 06:39:46;;;;;;;3.95;3.65;;;;;;;;;;5002486;28;20026;-74
2023/06/13 06:42:11;;;;;;;4.05;3.75;;;;;;;;;;5001912;28;20483;-77
2023/06/13 06:44:37;;;;;;;4.03;3.63;;;;;;;;;;5001775;28;20041;-75
2023/06/13 06:47:02;;;;;;;3.72;3.42;;;;;;;;;;5005899;28;20108;-76
2023/06/13 06:49:27;;;;;;;3.08;2.88;;;;;;;;;;5006090;28;20030;-76
2023/06/13 06:51:53;;;;;;;3.00;2.80;;;;;;;;;;5005413;28;20030;-78
2023/06/13 06:54:18;;;;;;;4.47;2.85;;;;;;;;;;5005991;28;20022;-76
2023/06/13 06:56:44;;;;;;;2.50;2.40;;;;;;;;;;5005781;28;20042;-77
2023/06/13 06:59:09;;;;;;;2.28;2.17;;;;;;;;;;5004704;28;20449;-77
2023/06/13 07:01:35;;;;;;;2.60;2.40;;;;;;;;;;5006310;28;20054;-76
2023/06/13 07:04:02;;;;;;;2.42;2.33;;;;;;;;;;5005582;28;20071;-78
2023/06/13 07:06:28;;;;;;;3.60;3.10;;;;;;;;;;5005523;28;20520;-75
2023/06/13 07:08:53;;;;;;;3.38;3.08;;;;;;;;;;5021230;28;20032;-77
2023/06/13 07:11:18;;;;;;;3.65;3.35;;;;;;;;;;5005005;28;20121;-76
2023/06/13 07:13:44;;;;;;;4.78;2.78;;;;;;;;;;5005799;28;20033;-77
2023/06/13 07:16:09;;;;;;;1.90;1.80;;;;;;;;;;5005844;28;20033;-77
2023/06/13 07:18:35;;;;;;;2.60;1.55;;;;;;;;;;5005555;28;20029;-76
2023/06/13 07:21:00;;;;;;;3.60;1.40;;;;;;;;;;5005064;28;20037;-77
2023/06/13 07:23:26;;;;;;;1.38;1.20;;;;;;;;;;5005264;28;20069;-76
2023/06/13 07:25:51;;;;;;;1.52;1.42;;;;;;;;;;5005206;28;20041;-76
2023/06/13 07:28:16;;;;;;;2.67;1.00;;;;;;;;;;5005462;28;20360;-76
2023/06/13 07:30:42;;;;;;;2.17;1.08;;;;;;;;;;5005027;28;20022;-77
2023/06/13 07:33:07;;;;;;;1.25;1.08;;;;;;;;;;5004717;28;20041;-77
2023/06/13 07:35:32;;;;;;;0.80;0.80;;;;;;;;;;5004177;28;20041;-77
2023/06/13 07:37:58;;;;;;;1.10;1.00;;;;;;;;;;5002757;28;20526;-76
2023/06/13 07:40:24;;;;;;;1.48;1.38;;;;;;;;;;5003772;28;20508;-78
2023/06/13 07:42:50;;;;;;;1.55;1.40;;;;;;;;;;5005265;28;20500;-76
2023/06/13 07:45:15;;;;;;;2.63;2.03;;;;;;;;;;5004645;28;20137;-76
2023/06/13 07:47:40;;;;;;;4.53;2.47;;;;;;;;;;5004636;28;20037;-76
2023/06/13 07:50:06;;;;;;;2.20;1.90;;;;;;;;;;5005195;28;20061;-76
2023/06/13 07:52:32;;;;;;;3.88;2.08;;;;;;;;;;5005018;28;20033;-77
2023/06/13 07:54:57;;;;;;;1.65;1.55;;;;;;;;;;5005541;28;20038;-77
2023/06/13 07:57:22;;;;;;;1.30;1.20;;;;;;;;;;5003929;28;20057;-76
2023/06/13 07:59:48;;;;;;;1.30;1.20;;;;;;;;;;5005525;28;20415;-77
2023/06/13 08:02:13;;;;;;;2.60;1.77;;;;;;;;;;5005065;28;20022;-77
2023/06/13 08:04:38;;;;;;;2.05;1.85;;;;;;;;;;5004780;28;20033;-76
2023/06/13 08:07:04;;;;;;;2.38;2.20;;;;;;;;;;5005189;28;20426;-76
2023/06/13 08:09:29;;;;;;;1.60;1.50;;;;;;;;;;5004744;28;20049;-76
2023/06/13 08:11:56;;;;;;;1.80;1.70;;;;;;;;;;5004849;28;20034;-75
2023/06/13 08:14:21;;;;;;;1.80;1.70;;;;;;;;;;5003501;28;20409;-77
2023/06/13 08:16:47;;;;;;;1.48;1.35;;;;;;;;;;5003215;28;20042;-76
2023/06/13 08:19:13;;;;;;;1.20;1.10;;;;;;;;;;5004446;28;20026;-77
2023/06/13 08:21:38;;;;;;;1.25;1.20;;;;;;;;;;5004485;28;20091;-77
2023/06/13 08:24:03;;;;;;;1.80;1.70;;;;;;;;;;5004441;28;20061;-76
2023/06/13 08:26:34;;;;;;;2.58;1.70;;;;;;;;;;5004924;28;20042;-76
2023/06/13 08:29:01;;;;;;;2.45;1.73;;;;;;;;;;5003890;28;20721;-76
2023/06/13 08:31:27;;;;;;;3.20;1.60;;;;;;;;;;5004203;28;20022;-76
2023/06/13 08:33:53;;;;;;;8.27;1.60;;;;;;;;;;5004514;28;20033;-77
2023/06/13 08:36:18;;;;;;;2.08;1.48;;;;;;;;;;5003321;28;20039;-78
2023/06/13 08:38:43;;;;;;;2.10;1.60;;;;;;;;;;5004350;28;20472;-75
2023/06/13 08:41:10;;;;;;;1.63;1.52;;;;;;;;;;5004216;28;20033;-78
2023/06/13 08:43:36;;;;;;;2.55;1.90;;;;;;;;;;5003019;28;20109;-76
2023/06/13 08:46:01;;;;;;;1.95;1.77;;;;;;;;;;5004329;28;20117;-77
2023/06/13 08:48:28;;;;;;;1.85;1.75;;;;;;;;;;5004467;28;20357;-78
2023/06/13 08:50:54;;;;;;;1.90;1.52;;;;;;;;;;5003630;28;20037;-76
2023/06/13 08:53:21;;;;;;;1.75;1.65;;;;;;;;;;5004143;28;20153;-77
2023/06/13 08:55:49;;;;;;;1.73;1.48;;;;;;;;;;5004317;28;20121;-77
2023/06/13 08:58:15;;;;;;;2.42;1.60;;;;;;;;;;5003819;28;20050;-75
2023/06/13 09:00:41;;;;;;;2.38;1.80;;;;;;;;;;5003855;28;20041;-76
2023/06/13 09:03:09;;;;;;;3.38;1.45;;;;;;;;;;5003368;28;20492;-77
2023/06/13 09:05:34;;;;;;;1.98;1.67;;;;;;;;;;5003577;28;20672;-76
2023/06/13 09:08:00;;;;;;;2.40;1.83;;;;;;;;;;5003681;28;20057;-77
2023/06/13 09:10:26;;;;;;;3.40;1.55;;;;;;;;;;5003457;28;20421;-75
2023/06/13 09:12:52;;;;;;;1.80;1.50;;;;;;;;;;5003945;28;20041;-76
2023/06/13 09:15:17;;;;;;;4.53;2.58;;;;;;;;;;5003863;28;20452;-75
2023/06/13 09:17:43;;;;;;;2.13;1.92;;;;;;;;;;5003904;28;20033;-78
2023/06/13 09:20:08;;;;;;;2.90;2.60;;;;;;;;;;5003942;28;20038;-75
2023/06/13 09:22:37;;;;;;;2.40;1.80;;;;;;;;;;5003824;28;20030;-76
2023/06/13 09:25:04;;;;;;;1.55;1.45;;;;;;;;;;5002846;28;20517;-76
2023/06/13 09:27:30;;;;;;;1.50;1.40;;;;;;;;;;5004444;28;20030;-77
2023/06/13 09:30:04;;;;;;;1.88;1.77;;;;;;;;;;5003653;28;20041;-77
2023/06/13 09:32:30;;;;;;;2.53;1.80;;;;;;;;;;5002961;28;20053;-76
2023/06/13 09:34:55;;;;;;;2.80;2.10;;;;;;;;;;5003082;28;20432;-75
2023/06/13 09:37:24;;;;;;;2.45;2.25;;;;;;;;;;5003603;28;20092;-76
2023/06/13 09:39:51;;;;;;;2.83;2.13;;;;;;;;;;5003343;28;20112;-76
2023/06/13 09:42:20;;;;;;;1.70;1.60;;;;;;;;;;5002639;28;20042;-78
2023/06/13 09:44:46;;;;;;;1.70;1.60;;;;;;;;;;5002492;28;20034;-76
2023/06/13 09:47:19;;;;;;;2.47;1.50;;;;;;;;;;5002790;28;20867;-76
2023/06/13 09:49:45;;;;;;;1.58;1.20;;;;;;;;;;5002752;28;20526;-76
2023/06/13 09:52:11;;;;;;;1.20;1.20;;;;;;;;;;5002369;28;20053;-79
2023/06/13 09:54:37;;;;;;;1.60;1.50;;;;;;;;;;5002426;28;20030;-75
2023/06/13 09:57:03;;;;;;;3.15;1.70;;;;;;;;;;5002719;28;20120;-77
2023/06/13 09:59:28;;;;;;;1.65;1.55;;;;;;;;;;5001621;28;20034;-77
2023/06/13 10:01:54;;;;;;;2.95;2.03;;;;;;;;;;5003456;28;20030;-78
2023/06/13 10:04:21;;;;;;;2.25;2.15;;;;;;;;;;5002969;28;20034;-77
2023/06/13 10:06:46;;;;;;;4.28;2.08;;;;;;;;;;5002516;28;20112;-75
2023/06/13 10:09:12;;;;;;;2.42;2.22;;;;;;;;;;5003001;28;20101;-76
2023/06/13 10:11:39;;;;;;;2.83;2.40;;;;;;;;;;5002523;28;20053;-77
2023/06/13 10:14:10;;;;;;;2.35;2.20;;;;;;;;;;5002093;28;20038;-77
2023/06/13 10:16:43;;;;;;;3.50;2.05;;;;;;;;;;5002556;28;20120;-77
2023/06/13 10:19:08;;;;;;;3.35;2.00;;;;;;;;;;5002096;28;20030;-76
2023/06/13 10:21:35;;;;;;;2.55;2.35;;;;;;;;;;5002559;28;20033;-77
2023/06/13 10:24:02;;;;;;;2.40;2.20;;;;;;;;;;5002533;28;20092;-77
2023/06/13 10:26:28;;;;;;;2.97;2.05;;;;;;;;;;5002929;28;20030;-76
2023/06/13 10:29:13;;;;;;;2.22;2.03;;;;;;;;;;5003130;28;20038;-77
2023/06/13 10:31:39;;;;;;;2.15;1.90;;;;;;;;;;5002873;28;20072;-77
2023/06/13 10:34:15;;;;;;;1.67;1.58;;;;;;;;;;5003122;28;20041;-76
2023/06/13 10:37:00;;;;;;;2.88;2.20;;;;;;;;;;5002594;28;20034;-75
2023/06/13 10:39:45;;;;;;;2.47;2.28;;;;;;;;;;5002635;28;20030;-78
2023/06/13 10:42:22;;;;;;;2.40;2.25;;;;;;;;;;5001976;28;20036;-74
2023/06/13 10:44:47;;;;;;;2.55;2.35;;;;;;;;;;5001861;28;20026;-76
2023/06/13 10:47:19;;;;;;;3.33;3.03;;;;;;;;;;5002001;28;20056;-76
2023/06/13 10:49:47;;;;;;;3.55;3.25;;;;;;;;;;5002802;28;20045;-77
2023/06/13 10:52:12;;;;;;;2.40;2.20;;;;;;;;;;5001458;28;20025;-75
2023/06/13 10:54:41;;;;;;;2.13;1.92;;;;;;;;;;5002064;28;20472;-76
2023/06/13 10:57:06;;;;;;;1.80;1.70;;;;;;;;;;5001397;28;20539;-77
2023/06/13 10:59:36;;;;;;;2.10;2.00;;;;;;;;;;5001346;28;20022;-75
2023/06/13 11:02:02;;;;;;;3.75;1.95;;;;;;;;;;5002888;28;20026;-75
2023/06/13 11:04:28;;;;;;;2.85;2.20;;;;;;;;;;5002583;28;20056;-76
2023/06/13 11:07:13;;;;;;;2.75;1.77;;;;;;;;;;5001998;28;20034;-79
2023/06/13 11:09:38;;;;;;;2.13;1.55;;;;;;;;;;5001862;28;20145;-76
2023/06/13 11:12:06;;;;;;;1.70;1.60;;;;;;;;;;5002580;28;20049;-78
2023/06/13 11:14:35;;;;;;;4.20;2.25;;;;;;;;;;5002287;28;20033;-76
2023/06/13 11:17:01;;;;;;;2.20;2.00;;;;;;;;;;5002220;28;20026;-76
2023/06/13 11:19:27;;;;;;;2.03;1.92;;;;;;;;;;5002170;28;20026;-77
2023/06/13 11:21:59;;;;;;;2.28;2.08;;;;;;;;;;5001996;28;20349;-78
2023/06/13 11:24:26;;;;;;;2.63;2.38;;;;;;;;;;5001924;28;20108;-77
2023/06/13 11:26:51;;;;;;;2.28;2.08;;;;;;;;;;5001616;28;20018;-75
2023/06/13 11:29:17;;;;;;;2.28;2.08;;;;;;;;;;5001253;28;20071;-78
2023/06/13 11:31:42;;;;;;;2.42;2.22;;;;;;;;;;5003719;28;20112;-77
2023/06/13 11:34:15;;;;;;;2.88;2.67;;;;;;;;;;5004941;28;20030;-77
2023/06/13 11:36:42;;;;;;;2.80;2.60;;;;;;;;;;5004931;28;20410;-77
2023/06/13 11:39:12;;;;;;;4.68;3.30;;;;;;;;;;5005662;28;20096;-76
2023/06/13 11:41:37;;;;;;;;;;;;;;;;;;5037880;28;20374;-77
2023/06/13 11:44:02;;;;;;;3.73;3.27;;;;;;;;;;5005440;28;19917;-78
2023/06/13 11:46:28;;;;;;;4.47;3.83;;;;;;;;;;5005557;28;20037;-76
2023/06/13 11:48:54;;;;;;;4.18;3.17;;;;;;;;;;5005819;28;20018;-77
2023/06/13 11:51:20;;;;;;;3.15;2.85;;;;;;;;;;5005558;28;20026;-78
2023/06/13 11:53:46;;;;;;;5.45;3.85;;;;;;;;;;5004931;28;20021;-77
2023/06/13 11:56:12;;;;;;;4.80;3.30;;;;;;;;;;5005184;28;20060;-77
2023/06/13 11:58:37;;;;;;;4.90;4.40;;;;;;;;;;5005530;28;21135;-77
2023/06/13 12:01:03;;;;;;;8.05;4.68;;;;;;;;;;5004892;28;20049;-77
2023/06/13 12:03:29;;;;;;;6.93;3.65;;;;;;;;;;5005266;28;20812;-77
2023/06/13 12:05:56;;;;;;;3.05;2.75;;;;;;;;;;5005196;28;20034;-77
2023/06/13 12:08:22;;;;;;;2.78;2.58;;;;;;;;;;5005332;28;20018;-76
2023/06/13 12:10:47;;;;;;;2.58;2.28;;;;;;;;;;5005183;28;20092;-77
2023/06/13 12:13:16;;;;;;;3.55;3.25;;;;;;;;;;5004666;28;20033;-78
2023/06/13 12:15:42;;;;;;;2.90;2.70;;;;;;;;;;5004531;28;20026;-76
2023/06/13 12:18:07;;;;;;;5.15;2.60;;;;;;;;;;5004703;28;20046;-76
2023/06/13 12:20:45;;;;;;;2.92;2.72;;;;;;;;;;5004191;28;20029;-76
2023/06/13 12:23:11;;;;;;;2.85;2.50;;;;;;;;;;5003866;28;20034;-79
2023/06/13 12:25:36;;;;;;;2.30;2.10;;;;;;;;;;5004143;28;20098;-77
2023/06/13 12:28:01;;;;;;;1.98;1.88;;;;;;;;;;5019737;28;20056;-78
2023/06/13 12:30:29;;;;;;;1.75;1.60;;;;;;;;;;5004254;28;20022;-79
2023/06/13 12:32:56;;;;;;;2.05;1.95;;;;;;;;;;5003712;28;20028;-75
2023/06/13 12:35:23;;;;;;;3.10;2.80;;;;;;;;;;5004123;28;20458;-74
2023/06/13 12:38:02;;;;;;;3.13;2.65;;;;;;;;;;5003916;28;20033;-77
2023/06/13 12:40:31;;;;;;;3.45;2.47;;;;;;;;;;5004348;28;21073;-77
2023/06/13 12:43:01;;;;;;;3.13;2.90;;;;;;;;;;5002896;28;20053;-75
2023/06/13 12:45:27;;;;;;;2.53;2.25;;;;;;;;;;5004013;28;20033;-76
2023/06/13 12:47:53;;;;;;;2.33;2.13;;;;;;;;;;5003704;28;20323;-75
2023/06/13 12:50:19;;;;;;;4.95;2.20;;;;;;;;;;5004395;28;20064;-76
2023/06/13 12:52:44;;;;;;;2.80;2.58;;;;;;;;;;5004378;28;20034;-76
2023/06/13 12:55:10;;;;;;;2.90;2.70;;;;;;;;;;5003698;28;20034;-77
2023/06/13 12:57:36;;;;;;;2.58;2.30;;;;;;;;;;5002819;28;20160;-77
2023/06/13 13:00:06;;;;;;;3.45;2.10;;;;;;;;;;5019718;28;20428;-77
2023/06/13 13:13:25;;;;;;;2.25;1.83;;;;;;;;;;5131368;27;20454;-76
2023/06/13 13:15:50;;;;;;;1.80;1.58;;;;;;;;;;5130407;27;20027;-75
2023/06/13 13:18:16;;;;;;;1.92;1.77;;;;;;;;;;5130971;27;20110;-76
2023/06/13 13:20:41;;;;;;;2.50;1.70;;;;;;;;;;5131055;28;20016;-75
2023/06/13 13:23:07;;;;;;;1.60;1.50;;;;;;;;;;5129577;27;20027;-76
2023/06/13 13:25:33;;;;;;;1.70;1.60;;;;;;;;;;5131140;27;20092;-76
2023/06/13 13:27:59;;;;;;;1.95;1.52;;;;;;;;;;5130983;27;20395;-76
2023/06/13 13:30:25;;;;;;;1.75;1.30;;;;;;;;;;5131031;27;20057;-76
2023/06/13 13:32:50;;;;;;;1.60;1.50;;;;;;;;;;5130610;27;20034;-76
2023/06/13 13:35:20;;;;;;;1.48;1.40;;;;;;;;;;5112867;28;20107;-76
2023/06/13 13:37:45;;;;;;;1.73;1.38;;;;;;;;;;5130388;27;20022;-77
2023/06/13 13:40:11;;;;;;;1.30;1.30;;;;;;;;;;5107597;27;20011;-77
2023/06/13 13:42:37;;;;;;;1.58;1.48;;;;;;;;;;5108954;28;20035;-77
2023/06/13 13:45:06;;;;;;;1.20;1.20;;;;;;;;;;5102073;27;20110;-78
2023/06/13 13:47:31;;;;;;;2.75;1.23;;;;;;;;;;5106591;28;20118;-76
2023/06/13 13:49:57;;;;;;;2.05;1.10;;;;;;;;;;5104787;28;20111;-77
2023/06/13 13:52:23;;;;;;;1.33;1.23;;;;;;;;;;5106499;27;20354;-76
2023/06/13 13:54:48;;;;;;;1.40;1.30;;;;;;;;;;5104079;27;20027;-78
2023/06/13 13:57:13;;;;;;;1.60;1.50;;;;;;;;;;5104042;28;20048;-76
2023/06/13 13:59:39;;;;;;;1.58;1.48;;;;;;;;;;5105100;28;20024;-77
2023/06/13 14:02:04;;;;;;;2.15;1.20;;;;;;;;;;5105142;27;21169;-76
2023/06/13 14:04:29;;;;;;;2.08;1.30;;;;;;;;;;5106109;27;20077;-76
2023/06/13 14:06:55;;;;;;;1.95;1.50;;;;;;;;;;5106601;27;20027;-75
2023/06/13 14:09:20;;;;;;;1.70;1.20;;;;;;;;;;5111324;27;20034;-76
2023/06/13 14:11:45;;;;;;;3.88;1.23;;;;;;;;;;5099176;28;20082;-77
2023/06/13 14:14:11;;;;;;;1.88;1.60;;;;;;;;;;5077339;28;20117;-76
2023/06/13 14:16:36;;;;;;;1.75;1.40;;;;;;;;;;5089797;28;20042;-77
2023/06/13 14:19:02;;;;;;;3.35;2.13;;;;;;;;;;5080253;28;20035;-76
2023/06/13 14:21:27;;;;;;;1.70;1.50;;;;;;;;;;5088198;28;20032;-75
2023/06/13 14:23:55;;;;;;;1.52;1.30;;;;;;;;;;5093859;28;20028;-76
2023/06/13 14:26:22;;;;;;;3.72;2.03;;;;;;;;;;5080514;27;20035;-76
2023/06/13 14:28:47;;;;;;;2.25;2.05;;;;;;;;;;5077107;28;20027;-76
2023/06/13 14:31:12;;;;;;;3.75;1.95;;;;;;;;;;5085990;28;20024;-78
2023/06/13 14:33:39;;;;;;;2.55;1.85;;;;;;;;;;5092112;28;20032;-78
2023/06/13 14:36:04;;;;;;;1.48;1.38;;;;;;;;;;5092758;28;20518;-77
2023/06/13 14:38:30;;;;;;;1.48;1.33;;;;;;;;;;5089832;28;20115;-77
2023/06/13 14:40:55;;;;;;;1.63;1.52;;;;;;;;;;5089585;28;20118;-78
2023/06/13 14:43:21;;;;;;;2.65;1.60;;;;;;;;;;5089724;28;20427;-77
2023/06/13 14:45:47;;;;;;;2.03;1.83;;;;;;;;;;5090696;28;20020;-77
2023/06/13 14:48:13;;;;;;;3.03;1.50;;;;;;;;;;5081061;28;20012;-78
2023/06/13 14:50:38;;;;;;;1.40;1.33;;;;;;;;;;5081645;28;20101;-76